createdAt,value
2023-01-17T00:00:37.595Z,0.20
2023-01-17T00:06:02.275Z,0.10
2023-01-17T00:11:09.505Z,0.20
2023-01-17T00:16:16.408Z,0.20
2023-01-17T00:21:41.536Z,0.30
2023-01-17T00:27:05.973Z,0.30
2023-01-17T00:32:11.863Z,0.30
2023-01-17T00:37:18.213Z,0.30
2023-01-17T00:42:24.453Z,0.10
2023-01-17T00:47:48.772Z,0.10
2023-01-17T00:53:12.276Z,0.20
2023-01-17T00:58:36.492Z,0.10
2023-01-17T01:04:01.286Z,0.10
2023-01-17T01:09:26.195Z,0.30
2023-01-17T01:14:51.289Z,0.40
2023-01-17T01:20:15.320Z,0.50
2023-01-17T01:25:39.932Z,0.60
2023-01-17T01:31:04.635Z,0.60
2023-01-17T01:36:12.199Z,0.80
2023-01-17T01:41:19.296Z,0.70
2023-01-17T01:46:30.479Z,0.70
2023-01-17T01:51:47.784Z,0.70
2023-01-17T01:56:58.001Z,0.60
2023-01-17T02:02:05.000Z,0.70
2023-01-17T02:07:19.397Z,0.70
2023-01-17T02:12:27.068Z,0.70
2023-01-17T02:18:14.395Z,0.90
2023-01-17T02:23:42.151Z,0.70
2023-01-17T02:29:36.445Z,0.50
2023-01-17T02:34:55.924Z,0.60
2023-01-17T02:40:21.673Z,0.60
2023-01-17T02:45:28.674Z,0.70
2023-01-17T02:50:48.525Z,0.70
2023-01-17T02:56:02.463Z,0.60
2023-01-17T03:01:35.152Z,0.70
2023-01-17T03:06:51.924Z,0.60
2023-01-17T03:11:59.920Z,0.60
2023-01-17T03:17:07.163Z,0.60
2023-01-17T03:22:13.791Z,0.70
2023-01-17T03:27:20.508Z,0.70
2023-01-17T03:32:27.187Z,0.70
2023-01-17T03:37:34.097Z,0.80
2023-01-17T03:42:40.811Z,0.80
2023-01-17T03:47:47.502Z,0.90
2023-01-17T03:52:54.254Z,0.90
2023-01-17T03:58:00.933Z,0.70
2023-01-17T04:03:07.804Z,0.70
2023-01-17T04:08:14.500Z,0.70
2023-01-17T04:13:21.381Z,0.50
2023-01-17T04:18:28.394Z,0.60
2023-01-17T04:23:35.463Z,0.60
2023-01-17T04:28:42.167Z,0.40
2023-01-17T04:33:48.869Z,0.40
2023-01-17T04:38:55.560Z,0.30
2023-01-17T04:44:02.350Z,0.40
2023-01-17T04:49:09.122Z,0.40
2023-01-17T04:54:16.715Z,0.50
2023-01-17T04:59:23.369Z,0.60
2023-01-17T05:04:30.078Z,0.50
2023-01-17T05:09:37.680Z,0.40
2023-01-17T05:14:44.452Z,0.40
2023-01-17T05:19:53.074Z,0.40
2023-01-17T05:24:59.758Z,0.50
2023-01-17T05:30:07.355Z,0.60
2023-01-17T05:35:14.108Z,0.70
2023-01-17T05:40:24.967Z,0.80
2023-01-17T05:45:33.569Z,0.70
2023-01-17T05:50:40.857Z,0.60
2023-01-17T05:55:48.108Z,0.80
2023-01-17T06:00:57.112Z,0.90
2023-01-17T06:06:03.924Z,0.90
2023-01-17T06:11:10.811Z,0.90
2023-01-17T06:16:17.822Z,0.90
2023-01-17T06:21:24.486Z,0.90
2023-01-17T06:26:31.162Z,0.80
2023-01-17T06:31:37.956Z,0.80
2023-01-17T06:36:44.667Z,0.80
2023-01-17T06:41:51.323Z,0.80
2023-01-17T06:46:58.078Z,0.80
2023-01-17T06:52:05.178Z,0.90
2023-01-17T06:57:11.869Z,0.90
2023-01-17T07:02:18.537Z,0.90
2023-01-17T07:07:25.201Z,0.90
2023-01-17T07:12:31.879Z,0.90
2023-01-17T07:17:38.663Z,1.00
2023-01-17T07:22:48.064Z,1.00
2023-01-17T07:27:58.120Z,1.00
2023-01-17T07:33:05.118Z,0.90
2023-01-17T07:38:15.733Z,1.00
2023-01-17T07:43:22.445Z,1.00
2023-01-17T07:48:29.403Z,0.90
2023-01-17T07:53:36.311Z,0.90
2023-01-17T07:58:43.147Z,0.90
2023-01-17T08:03:54.468Z,1.00
2023-01-17T08:09:01.131Z,1.00
2023-01-17T08:14:07.786Z,1.00
2023-01-17T08:19:15.751Z,1.10
2023-01-17T08:24:22.424Z,1.10
2023-01-17T08:29:29.626Z,1.10
2023-01-17T08:34:36.626Z,1.10
2023-01-17T08:39:43.500Z,1.40
2023-01-17T08:44:50.680Z,1.30
2023-01-17T08:49:58.983Z,1.60
2023-01-17T08:55:06.752Z,1.60
2023-01-17T09:00:14.254Z,1.50
2023-01-17T09:05:20.962Z,1.50
2023-01-17T09:10:27.655Z,1.60
2023-01-17T09:15:34.396Z,1.50
2023-01-17T09:20:41.002Z,1.50
2023-01-17T09:25:56.608Z,1.40
2023-01-17T09:31:07.560Z,1.40
2023-01-17T09:36:14.260Z,1.30
2023-01-17T09:41:30.323Z,1.40
2023-01-17T09:46:44.128Z,1.40
2023-01-17T09:51:49.662Z,1.40
2023-01-17T09:57:44.092Z,1.50
2023-01-17T10:03:32.852Z,1.60
2023-01-17T10:08:52.876Z,1.70
2023-01-17T10:14:04.053Z,1.70
2023-01-17T10:19:33.077Z,1.70
2023-01-17T10:24:56.180Z,1.90
2023-01-17T10:30:07.358Z,1.80
2023-01-17T10:35:27.016Z,1.80
2023-01-17T10:40:42.686Z,1.60
2023-01-17T10:45:58.686Z,1.70
2023-01-17T10:51:24.652Z,1.70
2023-01-17T10:56:32.800Z,1.80
2023-01-17T11:01:41.958Z,1.70
2023-01-17T11:06:58.152Z,1.60
2023-01-17T11:11:57.632Z,1.60
2023-01-17T11:17:07.087Z,1.80
2023-01-17T11:22:16.993Z,1.90
2023-01-17T11:27:35.984Z,1.70
2023-01-17T11:33:06.655Z,1.80
2023-01-17T11:38:24.382Z,1.60
2023-01-17T11:43:32.370Z,1.50
2023-01-17T11:48:41.031Z,1.60
2023-01-17T11:53:49.382Z,1.70
2023-01-17T11:59:09.370Z,1.60
2023-01-17T12:04:44.555Z,1.70
2023-01-17T12:10:04.502Z,1.70
2023-01-17T12:15:51.482Z,1.70
2023-01-17T12:21:20.981Z,1.70
2023-01-17T12:26:41.310Z,1.80
2023-01-17T12:32:19.968Z,1.80
2023-01-17T12:37:39.382Z,1.60
2023-01-17T12:42:53.399Z,1.60
2023-01-17T12:48:04.807Z,1.50
2023-01-17T12:53:48.300Z,1.70
2023-01-17T12:58:59.980Z,1.80
2023-01-17T13:04:19.719Z,1.70
2023-01-17T13:09:28.533Z,1.50
2023-01-17T13:14:36.328Z,1.60
2023-01-17T13:20:23.340Z,1.50
2023-01-17T13:25:40.257Z,1.60
2023-01-17T13:31:06.151Z,1.60
2023-01-17T13:36:44.543Z,1.60
2023-01-17T13:42:21.001Z,1.60
2023-01-17T13:47:36.659Z,1.70
2023-01-17T13:52:43.419Z,1.70
2023-01-17T13:57:51.852Z,1.70
2023-01-17T14:02:58.805Z,1.80
2023-01-17T14:08:10.049Z,1.80
2023-01-17T14:13:40.697Z,1.90
2023-01-17T14:18:48.445Z,1.80
2023-01-17T14:24:04.703Z,1.80
2023-01-17T14:30:00.297Z,1.70
2023-01-17T14:35:10.504Z,1.70
2023-01-17T14:40:30.886Z,1.70
2023-01-17T14:45:38.930Z,1.60
2023-01-17T14:50:48.391Z,1.70
2023-01-17T14:56:04.442Z,1.70
2023-01-17T15:01:17.847Z,1.70
2023-01-17T15:06:39.058Z,1.70
2023-01-17T15:11:48.224Z,1.70
2023-01-17T15:16:55.874Z,1.80
2023-01-17T15:22:02.624Z,1.70
2023-01-17T15:27:09.645Z,1.60
2023-01-17T15:32:23.418Z,1.70
2023-01-17T15:37:37.318Z,1.60
2023-01-17T15:42:48.409Z,1.60
2023-01-17T15:47:55.476Z,1.70
2023-01-17T15:53:09.666Z,1.60
2023-01-17T15:58:29.610Z,1.50
2023-01-17T16:03:37.606Z,1.60
2023-01-17T16:08:49.067Z,1.50
2023-01-17T16:13:56.219Z,1.50
2023-01-17T16:19:04.254Z,1.50
2023-01-17T16:24:13.042Z,1.40
2023-01-17T16:29:19.865Z,1.40
2023-01-17T16:34:26.954Z,1.30
2023-01-17T16:39:34.055Z,1.40
2023-01-17T16:44:41.295Z,1.30
2023-01-17T16:49:48.109Z,1.40
2023-01-17T16:54:56.562Z,1.40
2023-01-17T17:00:03.786Z,1.30
2023-01-17T17:05:12.014Z,1.30
2023-01-17T17:10:22.172Z,1.40
2023-01-17T17:15:28.803Z,1.30
2023-01-17T17:20:35.730Z,1.30
2023-01-17T17:25:42.631Z,1.30
2023-01-17T17:30:49.332Z,1.40
2023-01-17T17:35:56.118Z,1.50
2023-01-17T17:41:10.205Z,1.50
2023-01-17T17:46:17.249Z,1.50
2023-01-17T17:51:27.799Z,1.50
2023-01-17T17:56:35.804Z,1.40
2023-01-17T18:01:43.200Z,1.50
2023-01-17T18:06:49.998Z,1.40
2023-01-17T18:11:56.659Z,1.40
2023-01-17T18:17:05.259Z,1.40
2023-01-17T18:22:12.210Z,1.50
2023-01-17T18:27:18.853Z,1.50
2023-01-17T18:32:25.549Z,1.40
2023-01-17T18:37:33.490Z,1.30
2023-01-17T18:42:40.231Z,1.40
2023-01-17T18:47:46.999Z,1.50
2023-01-17T18:52:54.139Z,1.40
2023-01-17T18:58:00.918Z,1.40
2023-01-17T19:03:07.777Z,1.20
2023-01-17T19:08:17.185Z,1.40
2023-01-17T19:13:23.895Z,1.30
2023-01-17T19:18:30.879Z,1.40
2023-01-17T19:23:39.034Z,1.50
2023-01-17T19:28:48.490Z,1.30
2023-01-17T19:33:58.176Z,1.50
2023-01-17T19:39:09.797Z,1.30
2023-01-17T19:44:17.240Z,1.50
2023-01-17T19:49:25.144Z,1.30
2023-01-17T19:54:33.294Z,1.40
2023-01-17T19:59:40.428Z,1.40
2023-01-17T20:04:48.078Z,1.50
2023-01-17T20:09:55.163Z,1.30
2023-01-17T20:15:01.844Z,1.40
2023-01-17T20:20:11.064Z,1.30
2023-01-17T20:25:17.756Z,1.40
2023-01-17T20:30:26.348Z,1.40
2023-01-17T20:35:34.867Z,1.40
2023-01-17T20:40:41.678Z,1.40
2023-01-17T20:45:56.743Z,1.40
2023-01-17T20:51:12.153Z,1.40
2023-01-17T20:56:19.299Z,1.40
2023-01-17T21:01:26.196Z,1.50
2023-01-17T21:06:33.786Z,1.40
2023-01-17T21:11:41.193Z,1.40
2023-01-17T21:16:48.109Z,1.50
2023-01-17T21:21:56.574Z,1.50
2023-01-17T21:27:03.305Z,1.50
2023-01-17T21:32:10.100Z,1.50
2023-01-17T21:37:16.849Z,1.50
2023-01-17T21:42:23.667Z,1.40
2023-01-17T21:47:31.231Z,1.50
2023-01-17T21:52:38.017Z,1.60
2023-01-17T21:58:02.256Z,1.40
2023-01-17T22:03:08.775Z,1.30
2023-01-17T22:08:15.681Z,1.40
2023-01-17T22:13:22.554Z,1.40
2023-01-17T22:18:29.805Z,1.20
2023-01-17T22:23:38.111Z,1.40
2023-01-17T22:28:46.015Z,1.40
2023-01-17T22:34:02.569Z,1.50
2023-01-17T22:39:10.656Z,1.50
2023-01-17T22:44:17.342Z,1.50
2023-01-17T22:49:24.817Z,1.50
2023-01-17T22:54:31.908Z,1.40
2023-01-17T22:59:39.098Z,1.30
2023-01-17T23:04:47.253Z,1.40
2023-01-17T23:09:54.282Z,1.40
2023-01-17T23:15:18.410Z,1.40
2023-01-17T23:20:25.311Z,1.50
2023-01-17T23:25:32.036Z,1.30
2023-01-17T23:30:42.203Z,1.30
2023-01-17T23:35:49.320Z,1.30
2023-01-17T23:41:18.853Z,1.30
2023-01-17T23:46:27.435Z,1.30
2023-01-17T23:51:34.497Z,1.30
2023-01-17T23:56:41.738Z,1.30
